createdAt,value
2023-03-06T00:00:37.211Z,31.3
2023-03-06T00:15:48.226Z,30.2
2023-03-06T00:30:46.263Z,35.4
2023-03-06T00:45:38.993Z,32.4
2023-03-06T01:00:39.561Z,36.9
2023-03-06T01:15:45.425Z,31.3
2023-03-06T01:30:48.546Z,30.9
2023-03-06T01:45:46.934Z,32.6
2023-03-06T02:00:47.694Z,36.9
2023-03-06T02:01:27.887Z,36
2023-03-06T02:15:48.051Z,36.3
2023-03-06T02:30:49.087Z,33.4
2023-03-06T02:45:47.819Z,40.6
2023-03-06T03:00:43.927Z,37.2
2023-03-06T03:15:52.119Z,36.5
2023-03-06T03:30:54.901Z,41.1
2023-03-06T03:45:54.331Z,38.8
2023-03-06T04:00:54.869Z,35.6
2023-03-06T04:15:53.297Z,37.7
2023-03-06T04:30:54.945Z,34.2
2023-03-06T04:45:54.000Z,36.5
2023-03-06T05:00:55.421Z,44.6
2023-03-06T05:15:53.704Z,46.8
2023-03-06T05:31:03.614Z,51.5
2023-03-06T05:46:02.165Z,53.6
2023-03-06T05:58:46.031Z,65.4
2023-03-06T06:13:48.600Z,53.5
2023-03-06T06:28:47.707Z,61.6
2023-03-06T06:43:48.211Z,62.5
2023-03-06T06:58:51.370Z,64.5
2023-03-06T07:13:49.566Z,68.7
2023-03-06T07:28:53.024Z,63.1
2023-03-06T07:43:50.984Z,63.3
2023-03-06T07:58:51.843Z,75.6
2023-03-06T08:13:55.374Z,72
2023-03-06T08:28:53.808Z,68.9
2023-03-06T08:43:54.081Z,64.9
2023-03-06T08:58:54.492Z,103.5
2023-03-06T09:14:00.280Z,70.4
2023-03-06T09:28:55.526Z,81.7
2023-03-06T09:43:56.534Z,83.1
2023-03-06T09:58:58.454Z,72.9
2023-03-06T10:13:57.680Z,83.7
2023-03-06T10:29:01.427Z,70.2
2023-03-06T10:43:59.387Z,48.5
2023-03-06T10:59:01.192Z,38.4
2023-03-06T11:14:00.238Z,38
2023-03-06T11:29:12.303Z,19.6
2023-03-06T11:44:01.922Z,25.4
2023-03-06T11:59:02.729Z,21.9
2023-03-06T12:14:09.790Z,19.3
2023-03-06T12:29:03.945Z,22.6
2023-03-06T12:44:04.488Z,22.7
2023-03-06T12:59:33.051Z,25.2
2023-03-06T13:14:06.128Z,26.2
2023-03-06T13:29:05.687Z,56.4
2023-03-06T13:44:06.885Z,25.5
2023-03-06T13:59:09.713Z,27.6
2023-03-06T14:14:11.093Z,25.8
2023-03-06T14:29:11.792Z,26.4
2023-03-06T14:44:09.480Z,22.4
2023-03-06T14:59:15.026Z,19.7
2023-03-06T15:14:11.080Z,27.8
2023-03-06T15:29:11.447Z,26.9
2023-03-06T15:44:30.092Z,35.3
2023-03-06T15:59:17.515Z,20.3
2023-03-06T16:14:40.451Z,19.9
2023-03-06T16:29:14.367Z,21.2
2023-03-06T16:44:15.020Z,25.5
2023-03-06T16:59:14.679Z,65.8
2023-03-06T17:14:16.021Z,36.1
2023-03-06T17:29:22.412Z,37.2
2023-03-06T17:44:21.172Z,33.4
2023-03-06T17:59:18.993Z,36.9
2023-03-06T18:14:19.758Z,28.4
2023-03-06T18:29:27.066Z,51.9
2023-03-06T18:44:20.153Z,33
2023-03-06T18:59:22.865Z,31.4
2023-03-06T19:14:21.846Z,39.7
2023-03-06T19:29:23.080Z,39.9
2023-03-06T19:44:25.338Z,31.4
2023-03-06T19:59:24.096Z,25.2
2023-03-06T20:14:27.481Z,24.2
2023-03-06T20:29:28.558Z,26.4
2023-03-06T20:44:33.923Z,19
2023-03-06T20:59:27.807Z,18.4
2023-03-06T21:14:37.879Z,18.2
2023-03-06T21:29:28.069Z,15.9
2023-03-06T21:44:30.043Z,20.8
2023-03-06T21:59:30.089Z,16.6
2023-03-06T22:14:30.803Z,16.1
2023-03-06T22:29:30.552Z,16.8
2023-03-06T22:44:33.291Z,18.5
2023-03-06T22:59:31.930Z,16.4
2023-03-06T23:00:47.666Z,14.9
2023-03-06T23:15:35.148Z,19.2
2023-03-06T23:30:35.935Z,21.8
2023-03-06T23:45:48.833Z,16.1
